Citadel — PBOK — position and weather

sailwx.info

Track history (hours):
 
Tides and Currents Weather Stations Pressure Air Temp Water Temp Dewpoint Dewpoint Depression Visibility Wind Speed Wind Dir Waves Ship Positions

Citadel

Last reported at 2017-Jan-18 07:08 UTC. Time now 2017-Jan-18 22:15 UTC.
Position N 35°56' W 005°07'.

Length 111 m; draft 6 m.

Type: Cargo ship. MMSI: 245977000.

Date/timePositionNaut miles runAvg speedWind from/ knotsBaromVisibWave heightAir tempDewpointWater temp
2017-Jan-18 07:08N 35°56' W 005°07'711.9
2017-Jan-18 06:34N 35°55' W 005°15'3 2.7
2017-Jan-18 05:34N 35°54' W 005°18'0 0.0
2017-Jan-18 04:34N 35°54' W 005°18'0 0.0
2017-Jan-18 03:34N 35°54' W 005°18'0 0.0
2017-Jan-18 02:34N 35°54' W 005°18'0 0.0
2017-Jan-18 01:33N 35°54' W 005°18'1 1.3
2017-Jan-18 00:34N 35°55' W 005°19'11 9.8
2017-Jan-17 23:27N 35°56' W 005°32'1213.2
2017-Jan-17 22:32N 35°55' W 005°47'16511.8
2017-Jan-17 08:33N 36°33' W 009°06'3210.5
2017-Jan-17 05:31N 36°55' W 009°34'2811.2
2017-Jan-17 03:04N 37°22' W 009°42'911.4
2017-Jan-17 02:15N 37°31' W 009°44'811.5
2017-Jan-17 01:33N 37°39' W 009°46'1211.4
2017-Jan-17 00:32N 37°50' W 009°50'1211.6
2017-Jan-16 23:30N 38°02' W 009°53'1111.8
2017-Jan-16 22:33N 38°13' W 009°56'1311.7
2017-Jan-16 21:28N 38°25' W 009°60'1111.5
2017-Jan-16 20:33N 38°35' W 010°03'1111.4
2017-Jan-16 19:33N 38°47' W 010°05'1111.5
2017-Jan-16 18:33N 38°58' W 010°05'1111.2
2017-Jan-16 17:33N 39°09' W 010°05'  
2017-Jan-13 23:33N 49°51' W 004°12'10210.1
2017-Jan-13 13:23N 50°29' W 001°44'2010.9
2017-Jan-13 11:31N 50°34' W 001°13'7 7.0
2017-Jan-13 10:33N 50°38' W 001°04'0 0.1
2017-Jan-13 09:32N 50°38' W 001°04'0 0.0
2017-Jan-13 08:32N 50°38' W 001°04'0 0.0
2017-Jan-13 07:31N 50°38' W 001°04'0 0.0
2017-Jan-13 06:31N 50°38' W 001°04'0 0.1
2017-Jan-13 05:33N 50°38' W 001°04'0 0.2
2017-Jan-13 04:33N 50°38' W 001°04'0 0.1
2017-Jan-13 03:33N 50°38' W 001°04'0 0.0
2017-Jan-13 02:32N 50°38' W 001°04'0 0.0
2017-Jan-13 01:32N 50°38' W 001°04'0 0.0
2017-Jan-13 00:31N 50°38' W 001°04'0 0.1
2017-Jan-12 23:31N 50°38' W 001°04'0 0.2
2017-Jan-12 22:33N 50°38' W 001°04'0 0.1
2017-Jan-12 21:33N 50°38' W 001°04'0 0.0
2017-Jan-12 20:32N 50°38' W 001°04'0 0.0
2017-Jan-12 19:32N 50°38' W 001°04'0 0.0
2017-Jan-12 18:32N 50°38' W 001°04'3 2.8
2017-Jan-12 17:33N 50°36' W 001°02'24 7.6
2017-Jan-12 14:23N 50°26' W 000°27'911.2
2017-Jan-12 13:33N 50°29' W 000°13'1111.5
2017-Jan-12 12:33N 50°32' E 000°04'1111.4
2017-Jan-12 11:33N 50°35' E 000°21'1010.3
2017-Jan-12 10:33N 50°38' E 000°37'10 9.7
2017-Jan-12 09:33N 50°44' E 000°49'1310.0
2017-Jan-12 08:18N 50°52' E 001°04'911.7
2017-Jan-12 07:33N 50°58' E 001°15'8 8.3
2017-Jan-12 06:33N 51°05' E 001°21'9 9.2
2017-Jan-12 05:33N 51°08' E 001°35'1211.9
2017-Jan-12 04:34N 51°16' E 001°48'1110.6
2017-Jan-12 03:33N 51°24' E 001°60'10 9.7
2017-Jan-12 02:33N 51°21' E 002°14'9 8.5
2017-Jan-12 01:33N 51°23' E 002°28'9 8.6
2017-Jan-12 00:34N 51°23' E 002°41'8 8.0
2017-Jan-11 23:34N 51°23' E 002°54'7 7.4
2017-Jan-11 22:33N 51°24' E 003°06'8 8.4
2017-Jan-11 21:34N 51°24' E 003°19'9 9.1
2017-Jan-11 20:34N 51°25' E 003°34'11 5.1
2017-Jan-11 18:22N 51°19' E 003°49'5 5.7
2017-Jan-11 17:33N 51°15' E 003°49'4 3.5
2017-Jan-11 16:23N 51°11' E 003°48'0 0.0
2017-Jan-11 15:29N 51°11' E 003°48'0 0.0
2017-Jan-11 14:28N 51°11' E 003°48'0 0.0
2017-Jan-11 13:28N 51°11' E 003°48'0 0.0
2017-Jan-11 12:28N 51°11' E 003°48'0 0.0
2017-Jan-11 11:27N 51°11' E 003°48'0 0.0
2017-Jan-11 10:27N 51°11' E 003°48'0 0.0
2017-Jan-11 09:23N 51°11' E 003°48'0 0.0
2017-Jan-11 08:29N 51°11' E 003°48'0 0.0
2017-Jan-11 07:28N 51°11' E 003°48'0 0.0
2017-Jan-11 06:16N 51°11' E 003°48'0 0.0
2017-Jan-11 05:25N 51°11' E 003°48'0 0.0
2017-Jan-11 04:30N 51°11' E 003°48'0 0.0
2017-Jan-11 03:33N 51°11' E 003°48'0 0.0
2017-Jan-11 02:29N 51°11' E 003°48'0 0.0
2017-Jan-11 01:32N 51°11' E 003°48'0 0.0
2017-Jan-11 00:32N 51°11' E 003°48'0 0.0
2017-Jan-10 23:28N 51°11' E 003°48'0 0.0
2017-Jan-10 22:28N 51°11' E 003°48'0 0.0
2017-Jan-10 21:33N 51°11' E 003°48'0 0.0
2017-Jan-10 20:27N 51°11' E 003°48'0 0.0
2017-Jan-10 19:32N 51°11' E 003°48'0 0.0
2017-Jan-10 18:32N 51°11' E 003°48'0 0.0
2017-Jan-10 17:19N 51°11' E 003°48'0 0.0
2017-Jan-10 16:31N 51°11' E 003°48'0 0.0
2017-Jan-10 15:27N 51°11' E 003°48'0 0.0
2017-Jan-10 14:33N 51°11' E 003°48'0 0.0
2017-Jan-10 13:33N 51°11' E 003°48'0 0.0
2017-Jan-10 12:32N 51°11' E 003°48'0 0.0
2017-Jan-10 11:32N 51°11' E 003°48'0 0.0
2017-Jan-10 10:31N 51°11' E 003°48'0 0.0
2017-Jan-10 09:25N 51°11' E 003°48'0 0.0
2017-Jan-10 08:25N 51°11' E 003°48'0 0.0
2017-Jan-10 07:33N 51°11' E 003°48'0 0.0
2017-Jan-10 06:33N 51°11' E 003°48'0 0.1
2017-Jan-10 05:29N 51°11' E 003°48'1 1.2
2017-Jan-10 04:18N 51°09' E 003°47'0 0.0
2017-Jan-10 03:30N 51°09' E 003°47'0 0.0
2017-Jan-10 02:29N 51°09' E 003°47'0 0.0
2017-Jan-10 01:23N 51°09' E 003°47'0 0.0
2017-Jan-10 00:22N 51°09' E 003°47'0 0.0
2017-Jan-09 23:25N 51°09' E 003°47'0 0.0
2017-Jan-09 22:27N 51°09' E 003°47'0 0.0
2017-Jan-09 21:33N 51°09' E 003°47'0 0.0
2017-Jan-09 20:29N 51°09' E 003°47'0 0.0
2017-Jan-09 19:20N 51°09' E 003°47'0 0.0
2017-Jan-09 18:32N 51°09' E 003°47'0 0.0
2017-Jan-09 17:26N 51°09' E 003°47'0 0.0
2017-Jan-09 16:33N 51°09' E 003°47'0 0.0
2017-Jan-09 15:33N 51°09' E 003°47'0 0.0
2017-Jan-09 14:33N 51°09' E 003°47'0 0.0
2017-Jan-09 13:32N 51°09' E 003°47'0 0.0
2017-Jan-09 12:33N 51°09' E 003°47'0 0.0
2017-Jan-09 11:33N 51°09' E 003°47'0 0.0
2017-Jan-09 10:33N 51°09' E 003°47'0 0.0
2017-Jan-09 09:33N 51°09' E 003°47'0 0.0
2017-Jan-09 08:33N 51°09' E 003°47'0 0.0
2017-Jan-09 07:33N 51°09' E 003°47'0 0.0
2017-Jan-09 06:32N 51°09' E 003°47'0 0.0
2017-Jan-09 05:33N 51°09' E 003°47'0 0.0
2017-Jan-09 04:33N 51°09' E 003°47'0 0.0
2017-Jan-09 03:33N 51°09' E 003°47'0 0.0
2017-Jan-09 02:33N 51°09' E 003°47'0 0.0
2017-Jan-09 01:33N 51°09' E 003°47'0 0.0
2017-Jan-09 00:33N 51°09' E 003°47'0 0.0
2017-Jan-08 23:33N 51°09' E 003°47'0 0.0
2017-Jan-08 22:33N 51°09' E 003°47'0 0.0
2017-Jan-08 21:33N 51°09' E 003°47'0 0.0
2017-Jan-08 20:33N 51°09' E 003°47'0 0.0
2017-Jan-08 19:33N 51°09' E 003°47'0 0.0
2017-Jan-08 18:30N 51°09' E 003°47'0 0.0
2017-Jan-08 17:33N 51°09' E 003°47'0 0.0
2017-Jan-08 16:33N 51°09' E 003°47'0 0.0
2017-Jan-08 15:33N 51°09' E 003°47'0 0.0
2017-Jan-08 14:33N 51°09' E 003°47'0 0.0
2017-Jan-08 13:33N 51°09' E 003°47'0 0.0
2017-Jan-08 12:33N 51°09' E 003°47'0 0.0
2017-Jan-08 11:33N 51°09' E 003°47'0 0.0
2017-Jan-08 10:33N 51°09' E 003°47'0 0.0
2017-Jan-08 09:33N 51°09' E 003°47'0 0.0
2017-Jan-08 08:33N 51°09' E 003°47'0 0.0
2017-Jan-08 07:33N 51°09' E 003°47'  
Track history (hours):
 
Tides and Currents Weather Stations Pressure Air Temp Water Temp Dewpoint Dewpoint Depression Visibility Wind Speed Wind Dir Waves Ship Positions

Citadel

Last reported at 2017-Jan-18 07:08 UTC. Time now 2017-Jan-18 22:15 UTC.
Position N 35°56' W 005°07'.

Length 111 m; draft 6 m.

Type: Cargo ship. MMSI: 245977000.

Date/timePositionNaut miles runAvg speedWind from/ knotsBaromVisibWave heightAir tempDewpointWater temp
2017-Jan-18 07:08N 35°56' W 005°07'711.9
2017-Jan-18 06:34N 35°55' W 005°15'3 2.7
2017-Jan-18 05:34N 35°54' W 005°18'0 0.0
2017-Jan-18 04:34N 35°54' W 005°18'0 0.0
2017-Jan-18 03:34N 35°54' W 005°18'0 0.0
2017-Jan-18 02:34N 35°54' W 005°18'0 0.0
2017-Jan-18 01:33N 35°54' W 005°18'1 1.3
2017-Jan-18 00:34N 35°55' W 005°19'11 9.8
2017-Jan-17 23:27N 35°56' W 005°32'1213.2
2017-Jan-17 22:32N 35°55' W 005°47'16511.8
2017-Jan-17 08:33N 36°33' W 009°06'3210.5
2017-Jan-17 05:31N 36°55' W 009°34'2811.2
2017-Jan-17 03:04N 37°22' W 009°42'911.4
2017-Jan-17 02:15N 37°31' W 009°44'811.5
2017-Jan-17 01:33N 37°39' W 009°46'1211.4
2017-Jan-17 00:32N 37°50' W 009°50'1211.6
2017-Jan-16 23:30N 38°02' W 009°53'1111.8
2017-Jan-16 22:33N 38°13' W 009°56'1311.7
2017-Jan-16 21:28N 38°25' W 009°60'1111.5
2017-Jan-16 20:33N 38°35' W 010°03'1111.4
2017-Jan-16 19:33N 38°47' W 010°05'1111.5
2017-Jan-16 18:33N 38°58' W 010°05'1111.2
2017-Jan-16 17:33N 39°09' W 010°05'  
2017-Jan-13 23:33N 49°51' W 004°12'10210.1
2017-Jan-13 13:23N 50°29' W 001°44'2010.9
2017-Jan-13 11:31N 50°34' W 001°13'7 7.0
2017-Jan-13 10:33N 50°38' W 001°04'0 0.1
2017-Jan-13 09:32N 50°38' W 001°04'0 0.0
2017-Jan-13 08:32N 50°38' W 001°04'0 0.0
2017-Jan-13 07:31N 50°38' W 001°04'0 0.0
2017-Jan-13 06:31N 50°38' W 001°04'0 0.1
2017-Jan-13 05:33N 50°38' W 001°04'0 0.2
2017-Jan-13 04:33N 50°38' W 001°04'0 0.1
2017-Jan-13 03:33N 50°38' W 001°04'0 0.0
2017-Jan-13 02:32N 50°38' W 001°04'0 0.0
2017-Jan-13 01:32N 50°38' W 001°04'0 0.0
2017-Jan-13 00:31N 50°38' W 001°04'0 0.1
2017-Jan-12 23:31N 50°38' W 001°04'0 0.2
2017-Jan-12 22:33N 50°38' W 001°04'0 0.1
2017-Jan-12 21:33N 50°38' W 001°04'0 0.0
2017-Jan-12 20:32N 50°38' W 001°04'0 0.0
2017-Jan-12 19:32N 50°38' W 001°04'0 0.0
2017-Jan-12 18:32N 50°38' W 001°04'3 2.8
2017-Jan-12 17:33N 50°36' W 001°02'24 7.6
2017-Jan-12 14:23N 50°26' W 000°27'911.2
2017-Jan-12 13:33N 50°29' W 000°13'1111.5
2017-Jan-12 12:33N 50°32' E 000°04'1111.4
2017-Jan-12 11:33N 50°35' E 000°21'1010.3
2017-Jan-12 10:33N 50°38' E 000°37'10 9.7
2017-Jan-12 09:33N 50°44' E 000°49'1310.0
2017-Jan-12 08:18N 50°52' E 001°04'911.7
2017-Jan-12 07:33N 50°58' E 001°15'8 8.3
2017-Jan-12 06:33N 51°05' E 001°21'9 9.2
2017-Jan-12 05:33N 51°08' E 001°35'1211.9
2017-Jan-12 04:34N 51°16' E 001°48'1110.6
2017-Jan-12 03:33N 51°24' E 001°60'10 9.7
2017-Jan-12 02:33N 51°21' E 002°14'9 8.5
2017-Jan-12 01:33N 51°23' E 002°28'9 8.6
2017-Jan-12 00:34N 51°23' E 002°41'8 8.0
2017-Jan-11 23:34N 51°23' E 002°54'7 7.4
2017-Jan-11 22:33N 51°24' E 003°06'8 8.4
2017-Jan-11 21:34N 51°24' E 003°19'9 9.1
2017-Jan-11 20:34N 51°25' E 003°34'11 5.1
2017-Jan-11 18:22N 51°19' E 003°49'5 5.7
2017-Jan-11 17:33N 51°15' E 003°49'4 3.5
2017-Jan-11 16:23N 51°11' E 003°48'0 0.0
2017-Jan-11 15:29N 51°11' E 003°48'0 0.0
2017-Jan-11 14:28N 51°11' E 003°48'0 0.0
2017-Jan-11 13:28N 51°11' E 003°48'0 0.0
2017-Jan-11 12:28N 51°11' E 003°48'0 0.0
2017-Jan-11 11:27N 51°11' E 003°48'0 0.0
2017-Jan-11 10:27N 51°11' E 003°48'0 0.0
2017-Jan-11 09:23N 51°11' E 003°48'0 0.0
2017-Jan-11 08:29N 51°11' E 003°48'0 0.0
2017-Jan-11 07:28N 51°11' E 003°48'0 0.0
2017-Jan-11 06:16N 51°11' E 003°48'0 0.0
2017-Jan-11 05:25N 51°11' E 003°48'0 0.0
2017-Jan-11 04:30N 51°11' E 003°48'0 0.0
2017-Jan-11 03:33N 51°11' E 003°48'0 0.0
2017-Jan-11 02:29N 51°11' E 003°48'0 0.0
2017-Jan-11 01:32N 51°11' E 003°48'0 0.0
2017-Jan-11 00:32N 51°11' E 003°48'0 0.0
2017-Jan-10 23:28N 51°11' E 003°48'0 0.0
2017-Jan-10 22:28N 51°11' E 003°48'0 0.0
2017-Jan-10 21:33N 51°11' E 003°48'0 0.0
2017-Jan-10 20:27N 51°11' E 003°48'0 0.0
2017-Jan-10 19:32N 51°11' E 003°48'0 0.0
2017-Jan-10 18:32N 51°11' E 003°48'0 0.0
2017-Jan-10 17:19N 51°11' E 003°48'0 0.0
2017-Jan-10 16:31N 51°11' E 003°48'0 0.0
2017-Jan-10 15:27N 51°11' E 003°48'0 0.0
2017-Jan-10 14:33N 51°11' E 003°48'0 0.0
2017-Jan-10 13:33N 51°11' E 003°48'0 0.0
2017-Jan-10 12:32N 51°11' E 003°48'0 0.0
2017-Jan-10 11:32N 51°11' E 003°48'0 0.0
2017-Jan-10 10:31N 51°11' E 003°48'0 0.0
2017-Jan-10 09:25N 51°11' E 003°48'0 0.0
2017-Jan-10 08:25N 51°11' E 003°48'0 0.0
2017-Jan-10 07:33N 51°11' E 003°48'0 0.0
2017-Jan-10 06:33N 51°11' E 003°48'0 0.1
2017-Jan-10 05:29N 51°11' E 003°48'1 1.2
2017-Jan-10 04:18N 51°09' E 003°47'0 0.0
2017-Jan-10 03:30N 51°09' E 003°47'0 0.0
2017-Jan-10 02:29N 51°09' E 003°47'0 0.0
2017-Jan-10 01:23N 51°09' E 003°47'0 0.0
2017-Jan-10 00:22N 51°09' E 003°47'0 0.0
2017-Jan-09 23:25N 51°09' E 003°47'0 0.0
2017-Jan-09 22:27N 51°09' E 003°47'0 0.0
2017-Jan-09 21:33N 51°09' E 003°47'0 0.0
2017-Jan-09 20:29N 51°09' E 003°47'0 0.0
2017-Jan-09 19:20N 51°09' E 003°47'0 0.0
2017-Jan-09 18:32N 51°09' E 003°47'0 0.0
2017-Jan-09 17:26N 51°09' E 003°47'0 0.0
2017-Jan-09 16:33N 51°09' E 003°47'0 0.0
2017-Jan-09 15:33N 51°09' E 003°47'0 0.0
2017-Jan-09 14:33N 51°09' E 003°47'0 0.0
2017-Jan-09 13:32N 51°09' E 003°47'0 0.0
2017-Jan-09 12:33N 51°09' E 003°47'0 0.0
2017-Jan-09 11:33N 51°09' E 003°47'0 0.0
2017-Jan-09 10:33N 51°09' E 003°47'0 0.0
2017-Jan-09 09:33N 51°09' E 003°47'0 0.0
2017-Jan-09 08:33N 51°09' E 003°47'0 0.0
2017-Jan-09 07:33N 51°09' E 003°47'0 0.0
2017-Jan-09 06:32N 51°09' E 003°47'0 0.0
2017-Jan-09 05:33N 51°09' E 003°47'0 0.0
2017-Jan-09 04:33N 51°09' E 003°47'0 0.0
2017-Jan-09 03:33N 51°09' E 003°47'0 0.0
2017-Jan-09 02:33N 51°09' E 003°47'0 0.0
2017-Jan-09 01:33N 51°09' E 003°47'0 0.0
2017-Jan-09 00:33N 51°09' E 003°47'0 0.0
2017-Jan-08 23:33N 51°09' E 003°47'0 0.0
2017-Jan-08 22:33N 51°09' E 003°47'0 0.0
2017-Jan-08 21:33N 51°09' E 003°47'0 0.0
2017-Jan-08 20:33N 51°09' E 003°47'0 0.0
2017-Jan-08 19:33N 51°09' E 003°47'0 0.0
2017-Jan-08 18:30N 51°09' E 003°47'0 0.0
2017-Jan-08 17:33N 51°09' E 003°47'0 0.0
2017-Jan-08 16:33N 51°09' E 003°47'0 0.0
2017-Jan-08 15:33N 51°09' E 003°47'0 0.0
2017-Jan-08 14:33N 51°09' E 003°47'0 0.0
2017-Jan-08 13:33N 51°09' E 003°47'0 0.0
2017-Jan-08 12:33N 51°09' E 003°47'0 0.0
2017-Jan-08 11:33N 51°09' E 003°47'0 0.0
2017-Jan-08 10:33N 51°09' E 003°47'0 0.0
2017-Jan-08 09:33N 51°09' E 003°47'0 0.0
2017-Jan-08 08:33N 51°09' E 003°47'0 0.0
2017-Jan-08 07:33N 51°09' E 003°47'  

Dump ship's entire track history